Terminal Aerodrome Forecast
Issued by NWS Twin Cities, MN

Home | Current Version | Previous Version | Graphics & Text | Print | Product List | Glossary On
Versions: 1 2 3 4 5 6 7 8 9 10 11 12 13 14 15 16 17 18 19
065
FTUS43 KMPX 051732
TAFEAU
TAF
KEAU 051732Z 0518/0618 15004KT P6SM BKN110
     FM060100 18007KT P6SM VCSH SCT025 BKN050
      TEMPO 0601/0604 5SM -SN BKN025
     FM060400 23005KT P6SM BKN025
     FM060800 23005KT P6SM FEW025=

USA.gov is the U.S. government's official web portal to all federal, state and local government web resources and services.